createdAt,value
2022-09-12T00:00:00.000Z,4.16
2022-09-12T00:15:00.000Z,3.86
2022-09-12T00:30:00.000Z,4.08
2022-09-12T00:45:00.000Z,3.84
2022-09-12T01:00:00.000Z,3.82
2022-09-12T01:15:00.000Z,4.05
2022-09-12T01:30:00.000Z,4.07
2022-09-12T01:45:00.000Z,4.08
2022-09-12T02:15:00.000Z,3
2022-09-12T02:30:00.000Z,4
2022-09-12T02:45:00.000Z,5
2022-09-12T02:45:00.000Z,4.12
2022-09-12T03:00:00.000Z,4.12
2022-09-12T03:15:00.000Z,4.19
2022-09-12T03:30:00.000Z,4.41
2022-09-12T03:45:00.000Z,4.14
2022-09-12T04:00:00.000Z,4.21
2022-09-12T04:15:00.000Z,4.44
2022-09-12T04:30:00.000Z,4.36
2022-09-12T04:45:00.000Z,4.46
2022-09-12T05:00:00.000Z,4.74
2022-09-12T05:15:00.000Z,4.36
2022-09-12T05:30:00.000Z,4.59
2022-09-12T05:45:00.000Z,4.55
2022-09-12T06:00:00.000Z,4.02
2022-09-12T06:15:00.000Z,3.64
2022-09-12T06:30:00.000Z,3.81
2022-09-12T06:45:00.000Z,3.35
2022-09-12T07:00:00.000Z,2.91
2022-09-12T07:15:00.000Z,2.31
2022-09-12T07:30:00.000Z,1.78
2022-09-12T07:45:00.000Z,2.01
2022-09-12T08:00:00.000Z,1.45
2022-09-12T08:15:00.000Z,1.53
2022-09-12T08:30:00.000Z,1.76
2022-09-12T08:45:00.000Z,1.92
2022-09-12T09:00:00.000Z,1.99
2022-09-12T09:15:00.000Z,1.67
2022-09-12T09:30:00.000Z,1.52
2022-09-12T09:45:00.000Z,1.49
2022-09-12T10:00:00.000Z,1.49
2022-09-12T10:15:00.000Z,1.98
2022-09-12T10:30:00.000Z,3.14
2022-09-12T10:45:00.000Z,1.93
2022-09-12T11:00:00.000Z,4.81
2022-09-12T11:15:00.000Z,2.33
2022-09-12T11:30:00.000Z,4.14
2022-09-12T11:45:00.000Z,3.67
2022-09-12T12:00:00.000Z,3.04
2022-09-12T12:15:00.000Z,2.14
2022-09-12T12:30:00.000Z,3.67
2022-09-12T12:45:00.000Z,3.93
2022-09-12T13:00:00.000Z,2.76
2022-09-12T13:15:00.000Z,2.85
2022-09-12T13:30:00.000Z,3
2022-09-12T13:45:00.000Z,2.87
2022-09-12T14:00:00.000Z,2.42
2022-09-12T14:15:00.000Z,1.86
2022-09-12T14:30:00.000Z,2.86
2022-09-12T14:45:00.000Z,2.53
2022-09-12T15:00:00.000Z,2.39
2022-09-12T15:15:00.000Z,3.54
2022-09-12T15:30:00.000Z,2.96
2022-09-12T15:45:00.000Z,2.58
2022-09-12T16:00:00.000Z,3.94
2022-09-12T16:15:00.000Z,4.19
2022-09-12T16:30:00.000Z,4.05
2022-09-12T16:45:00.000Z,4.49
2022-09-12T17:00:00.000Z,4.74
2022-09-12T17:15:00.000Z,6.88
2022-09-12T17:30:00.000Z,7.94
2022-09-12T17:45:00.000Z,8.04
2022-09-12T18:00:00.000Z,6.13
2022-09-12T18:15:00.000Z,5.92
2022-09-12T18:30:00.000Z,7.19
2022-09-12T18:45:00.000Z,7.79
2022-09-12T19:00:00.000Z,8.24
2022-09-12T19:15:00.000Z,7.82
2022-09-12T19:30:00.000Z,7.75
2022-09-12T19:45:00.000Z,6.64
2022-09-12T20:00:00.000Z,7.14
2022-09-12T20:15:00.000Z,8.78
2022-09-12T20:30:00.000Z,7.11
2022-09-12T20:45:00.000Z,7.04
2022-09-12T21:00:00.000Z,7.11
2022-09-12T21:15:00.000Z,7.15
2022-09-12T21:30:00.000Z,7.41
2022-09-12T21:45:00.000Z,6.98
2022-09-12T22:00:00.000Z,7.26
2022-09-12T22:15:00.000Z,7.08
2022-09-12T22:30:00.000Z,7.38
2022-09-12T22:45:00.000Z,7.34
2022-09-12T23:00:00.000Z,7.51
2022-09-12T23:15:00.000Z,7.31
2022-09-12T23:30:00.000Z,7.31
2022-09-12T23:45:00.000Z,7.21
